sensor_id;sensor_type;location;lat;lon;timestamp;temperature;humidity
20070;DHT22;10195;50.868;4.382;2023-07-31T00:00:10;17.70;99.90
20070;DHT22;10195;50.868;4.382;2023-07-31T00:02:36;17.70;99.90
20070;DHT22;10195;50.868;4.382;2023-07-31T00:05:02;17.70;99.90
20070;DHT22;10195;50.868;4.382;2023-07-31T00:07:28;17.70;99.90
20070;DHT22;10195;50.868;4.382;2023-07-31T00:09:54;17.70;99.90
20070;DHT22;10195;50.868;4.382;2023-07-31T00:12:20;17.80;99.90
20070;DHT22;10195;50.868;4.382;2023-07-31T00:14:45;17.80;99.90
20070;DHT22;10195;50.868;4.382;2023-07-31T00:17:12;17.80;99.90
20070;DHT22;10195;50.868;4.382;2023-07-31T00:19:37;17.80;99.90
20070;DHT22;10195;50.868;4.382;2023-07-31T00:22:03;17.90;99.90
20070;DHT22;10195;50.868;4.382;2023-07-31T00:24:29;17.90;99.90
20070;DHT22;10195;50.868;4.382;2023-07-31T00:26:54;17.90;99.90
20070;DHT22;10195;50.868;4.382;2023-07-31T00:29:20;18.00;99.90
20070;DHT22;10195;50.868;4.382;2023-07-31T00:31:46;18.00;99.90
20070;DHT22;10195;50.868;4.382;2023-07-31T00:34:11;18.00;99.90
20070;DHT22;10195;50.868;4.382;2023-07-31T00:36:37;18.00;99.90
20070;DHT22;10195;50.868;4.382;2023-07-31T00:39:03;18.10;99.90
20070;DHT22;10195;50.868;4.382;2023-07-31T00:41:30;18.00;99.90
20070;DHT22;10195;50.868;4.382;2023-07-31T00:43:55;18.00;99.90
20070;DHT22;10195;50.868;4.382;2023-07-31T00:46:21;18.00;99.90
20070;DHT22;10195;50.868;4.382;2023-07-31T00:48:47;17.90;99.90
20070;DHT22;10195;50.868;4.382;2023-07-31T00:51:13;17.90;99.90
20070;DHT22;10195;50.868;4.382;2023-07-31T00:53:40;17.80;99.90
20070;DHT22;10195;50.868;4.382;2023-07-31T00:56:06;17.90;99.90
20070;DHT22;10195;50.868;4.382;2023-07-31T00:58:33;18.00;99.90
20070;DHT22;10195;50.868;4.382;2023-07-31T01:00:58;18.00;99.90
20070;DHT22;10195;50.868;4.382;2023-07-31T01:03:24;17.90;99.90
20070;DHT22;10195;50.868;4.382;2023-07-31T01:06:12;18.00;99.90
20070;DHT22;10195;50.868;4.382;2023-07-31T01:11:28;18.00;99.90
20070;DHT22;10195;50.868;4.382;2023-07-31T01:13:55;18.00;99.90
20070;DHT22;10195;50.868;4.382;2023-07-31T01:16:21;18.00;99.90
20070;DHT22;10195;50.868;4.382;2023-07-31T01:18:46;18.00;99.90
20070;DHT22;10195;50.868;4.382;2023-07-31T01:26:34;17.90;99.90
20070;DHT22;10195;50.868;4.382;2023-07-31T01:29:07;17.90;99.90
20070;DHT22;10195;50.868;4.382;2023-07-31T01:31:36;17.90;99.90
20070;DHT22;10195;50.868;4.382;2023-07-31T01:34:03;17.90;99.90
20070;DHT22;10195;50.868;4.382;2023-07-31T01:36:30;17.90;99.90
20070;DHT22;10195;50.868;4.382;2023-07-31T01:39:00;17.90;99.90
20070;DHT22;10195;50.868;4.382;2023-07-31T01:41:26;17.90;99.90
20070;DHT22;10195;50.868;4.382;2023-07-31T01:43:52;17.90;99.90
20070;DHT22;10195;50.868;4.382;2023-07-31T01:46:18;17.90;99.90
20070;DHT22;10195;50.868;4.382;2023-07-31T01:48:43;18.00;99.90
20070;DHT22;10195;50.868;4.382;2023-07-31T01:51:09;18.10;99.90
20070;DHT22;10195;50.868;4.382;2023-07-31T01:53:35;18.00;99.90
20070;DHT22;10195;50.868;4.382;2023-07-31T01:56:00;18.00;99.90
20070;DHT22;10195;50.868;4.382;2023-07-31T01:58:26;18.00;99.90
20070;DHT22;10195;50.868;4.382;2023-07-31T02:00:52;18.10;99.90
20070;DHT22;10195;50.868;4.382;2023-07-31T02:03:17;18.10;99.90
20070;DHT22;10195;50.868;4.382;2023-07-31T02:05:47;18.10;99.90
20070;DHT22;10195;50.868;4.382;2023-07-31T02:08:13;18.10;99.90
20070;DHT22;10195;50.868;4.382;2023-07-31T02:10:39;18.10;99.90
20070;DHT22;10195;50.868;4.382;2023-07-31T02:13:05;18.20;99.90
20070;DHT22;10195;50.868;4.382;2023-07-31T02:15:31;18.20;99.90
20070;DHT22;10195;50.868;4.382;2023-07-31T02:17:57;18.20;99.90
20070;DHT22;10195;50.868;4.382;2023-07-31T02:20:22;18.20;99.90
20070;DHT22;10195;50.868;4.382;2023-07-31T02:22:48;18.20;99.90
20070;DHT22;10195;50.868;4.382;2023-07-31T02:25:14;18.20;99.90
20070;DHT22;10195;50.868;4.382;2023-07-31T02:27:39;18.10;99.90
20070;DHT22;10195;50.868;4.382;2023-07-31T02:30:05;18.10;99.90
20070;DHT22;10195;50.868;4.382;2023-07-31T02:32:31;18.10;99.90
20070;DHT22;10195;50.868;4.382;2023-07-31T02:34:57;18.00;99.90
20070;DHT22;10195;50.868;4.382;2023-07-31T02:37:23;18.00;99.90
20070;DHT22;10195;50.868;4.382;2023-07-31T02:39:49;18.00;99.90
20070;DHT22;10195;50.868;4.382;2023-07-31T02:42:15;18.10;99.90
20070;DHT22;10195;50.868;4.382;2023-07-31T02:44:41;18.10;99.90
20070;DHT22;10195;50.868;4.382;2023-07-31T02:47:06;18.10;99.90
20070;DHT22;10195;50.868;4.382;2023-07-31T02:49:32;18.10;99.90
20070;DHT22;10195;50.868;4.382;2023-07-31T02:51:58;18.00;99.90
20070;DHT22;10195;50.868;4.382;2023-07-31T02:54:23;18.00;99.90
20070;DHT22;10195;50.868;4.382;2023-07-31T02:56:49;18.00;99.90
20070;DHT22;10195;50.868;4.382;2023-07-31T02:59:15;18.00;99.90
20070;DHT22;10195;50.868;4.382;2023-07-31T03:01:40;18.00;99.90
20070;DHT22;10195;50.868;4.382;2023-07-31T03:04:06;18.00;99.90
20070;DHT22;10195;50.868;4.382;2023-07-31T03:06:32;18.00;99.90
20070;DHT22;10195;50.868;4.382;2023-07-31T03:08:58;18.00;99.90
20070;DHT22;10195;50.868;4.382;2023-07-31T03:11:23;17.90;99.90
20070;DHT22;10195;50.868;4.382;2023-07-31T03:13:49;18.00;99.90
20070;DHT22;10195;50.868;4.382;2023-07-31T03:16:14;17.90;99.90
20070;DHT22;10195;50.868;4.382;2023-07-31T03:18:40;18.00;99.90
20070;DHT22;10195;50.868;4.382;2023-07-31T03:21:06;18.00;99.90
20070;DHT22;10195;50.868;4.382;2023-07-31T03:23:31;18.00;99.90
20070;DHT22;10195;50.868;4.382;2023-07-31T03:25:57;18.00;99.90
20070;DHT22;10195;50.868;4.382;2023-07-31T03:28:23;17.80;99.90
20070;DHT22;10195;50.868;4.382;2023-07-31T03:30:49;17.80;99.90
20070;DHT22;10195;50.868;4.382;2023-07-31T03:33:15;17.80;99.90
20070;DHT22;10195;50.868;4.382;2023-07-31T03:35:41;17.70;99.90
20070;DHT22;10195;50.868;4.382;2023-07-31T03:38:06;17.70;99.90
20070;DHT22;10195;50.868;4.382;2023-07-31T03:40:32;17.70;99.90
20070;DHT22;10195;50.868;4.382;2023-07-31T03:42:57;17.80;99.90
20070;DHT22;10195;50.868;4.382;2023-07-31T03:45:23;17.70;99.90
20070;DHT22;10195;50.868;4.382;2023-07-31T03:47:49;17.70;99.90
20070;DHT22;10195;50.868;4.382;2023-07-31T03:50:14;17.70;99.90
20070;DHT22;10195;50.868;4.382;2023-07-31T03:52:41;17.70;99.90
20070;DHT22;10195;50.868;4.382;2023-07-31T03:55:07;17.70;99.90
20070;DHT22;10195;50.868;4.382;2023-07-31T03:57:32;17.70;99.90
20070;DHT22;10195;50.868;4.382;2023-07-31T03:59:58;17.70;99.90
20070;DHT22;10195;50.868;4.382;2023-07-31T04:02:24;17.70;99.90
20070;DHT22;10195;50.868;4.382;2023-07-31T04:04:50;17.60;99.90
20070;DHT22;10195;50.868;4.382;2023-07-31T04:07:15;17.70;99.90
20070;DHT22;10195;50.868;4.382;2023-07-31T04:09:41;17.70;99.90
20070;DHT22;10195;50.868;4.382;2023-07-31T04:12:07;17.60;99.90
20070;DHT22;10195;50.868;4.382;2023-07-31T04:14:32;17.60;99.90
20070;DHT22;10195;50.868;4.382;2023-07-31T04:16:58;17.60;99.90
20070;DHT22;10195;50.868;4.382;2023-07-31T04:19:24;17.60;99.90
20070;DHT22;10195;50.868;4.382;2023-07-31T04:21:50;17.50;99.90
20070;DHT22;10195;50.868;4.382;2023-07-31T04:24:15;17.50;99.90
20070;DHT22;10195;50.868;4.382;2023-07-31T04:26:41;17.60;99.90
20070;DHT22;10195;50.868;4.382;2023-07-31T04:29:06;17.60;99.90
20070;DHT22;10195;50.868;4.382;2023-07-31T04:31:33;17.60;99.90
20070;DHT22;10195;50.868;4.382;2023-07-31T04:33:59;17.60;99.90
20070;DHT22;10195;50.868;4.382;2023-07-31T04:36:24;17.70;99.90
20070;DHT22;10195;50.868;4.382;2023-07-31T04:38:50;17.60;99.90
20070;DHT22;10195;50.868;4.382;2023-07-31T04:41:16;17.60;99.90
20070;DHT22;10195;50.868;4.382;2023-07-31T04:43:41;17.70;99.90
20070;DHT22;10195;50.868;4.382;2023-07-31T04:46:07;17.60;99.90
20070;DHT22;10195;50.868;4.382;2023-07-31T04:48:33;17.60;99.90
20070;DHT22;10195;50.868;4.382;2023-07-31T04:50:58;17.60;99.90
20070;DHT22;10195;50.868;4.382;2023-07-31T04:53:24;17.70;99.90
20070;DHT22;10195;50.868;4.382;2023-07-31T04:55:49;17.70;99.90
20070;DHT22;10195;50.868;4.382;2023-07-31T04:58:15;17.80;99.90
20070;DHT22;10195;50.868;4.382;2023-07-31T05:00:41;17.80;99.90
20070;DHT22;10195;50.868;4.382;2023-07-31T05:03:06;17.80;99.90
20070;DHT22;10195;50.868;4.382;2023-07-31T05:05:32;17.80;99.90
20070;DHT22;10195;50.868;4.382;2023-07-31T05:07:58;17.80;99.90
20070;DHT22;10195;50.868;4.382;2023-07-31T05:10:23;17.80;99.90
20070;DHT22;10195;50.868;4.382;2023-07-31T05:12:49;17.80;99.90
20070;DHT22;10195;50.868;4.382;2023-07-31T05:15:15;17.90;99.90
20070;DHT22;10195;50.868;4.382;2023-07-31T05:17:40;17.80;99.90
20070;DHT22;10195;50.868;4.382;2023-07-31T05:20:06;17.70;99.90
20070;DHT22;10195;50.868;4.382;2023-07-31T05:22:32;17.70;99.90
20070;DHT22;10195;50.868;4.382;2023-07-31T05:24:58;17.50;99.90
20070;DHT22;10195;50.868;4.382;2023-07-31T05:27:24;17.40;99.90
20070;DHT22;10195;50.868;4.382;2023-07-31T05:29:49;17.40;99.90
20070;DHT22;10195;50.868;4.382;2023-07-31T05:32:15;17.40;99.90
20070;DHT22;10195;50.868;4.382;2023-07-31T05:34:40;17.40;99.90
20070;DHT22;10195;50.868;4.382;2023-07-31T05:37:06;17.40;99.90
20070;DHT22;10195;50.868;4.382;2023-07-31T05:39:32;17.40;99.90
20070;DHT22;10195;50.868;4.382;2023-07-31T05:41:57;17.40;99.90
20070;DHT22;10195;50.868;4.382;2023-07-31T05:44:23;17.50;99.90
20070;DHT22;10195;50.868;4.382;2023-07-31T05:46:48;17.40;99.90
20070;DHT22;10195;50.868;4.382;2023-07-31T05:49:14;17.40;99.90
20070;DHT22;10195;50.868;4.382;2023-07-31T05:51:40;17.40;99.90
20070;DHT22;10195;50.868;4.382;2023-07-31T05:54:05;17.40;99.90
20070;DHT22;10195;50.868;4.382;2023-07-31T05:56:31;17.40;99.90
20070;DHT22;10195;50.868;4.382;2023-07-31T05:58:58;17.40;99.90
20070;DHT22;10195;50.868;4.382;2023-07-31T06:01:24;17.40;99.90
20070;DHT22;10195;50.868;4.382;2023-07-31T06:03:50;17.40;99.90
20070;DHT22;10195;50.868;4.382;2023-07-31T06:06:15;17.50;99.90
20070;DHT22;10195;50.868;4.382;2023-07-31T06:08:41;17.50;99.90
20070;DHT22;10195;50.868;4.382;2023-07-31T06:11:07;17.60;99.90
20070;DHT22;10195;50.868;4.382;2023-07-31T06:13:34;17.60;99.90
20070;DHT22;10195;50.868;4.382;2023-07-31T06:16:00;17.60;99.90
20070;DHT22;10195;50.868;4.382;2023-07-31T06:18:31;17.60;99.90
20070;DHT22;10195;50.868;4.382;2023-07-31T06:20:56;17.50;99.90
20070;DHT22;10195;50.868;4.382;2023-07-31T06:23:22;17.60;99.90
20070;DHT22;10195;50.868;4.382;2023-07-31T06:25:48;17.60;99.90
20070;DHT22;10195;50.868;4.382;2023-07-31T06:28:13;17.60;99.90
20070;DHT22;10195;50.868;4.382;2023-07-31T06:30:39;17.70;99.90
20070;DHT22;10195;50.868;4.382;2023-07-31T06:33:05;17.80;99.90
20070;DHT22;10195;50.868;4.382;2023-07-31T06:35:30;17.70;99.90
20070;DHT22;10195;50.868;4.382;2023-07-31T06:37:56;17.80;99.90
20070;DHT22;10195;50.868;4.382;2023-07-31T06:40:22;17.80;99.90
20070;DHT22;10195;50.868;4.382;2023-07-31T06:42:48;17.80;99.90
20070;DHT22;10195;50.868;4.382;2023-07-31T06:45:13;17.90;99.90
20070;DHT22;10195;50.868;4.382;2023-07-31T06:47:39;18.00;99.90
20070;DHT22;10195;50.868;4.382;2023-07-31T06:50:05;18.00;99.90
20070;DHT22;10195;50.868;4.382;2023-07-31T06:52:31;18.10;99.90
20070;DHT22;10195;50.868;4.382;2023-07-31T06:55:09;18.20;99.90
20070;DHT22;10195;50.868;4.382;2023-07-31T06:57:42;18.30;99.90
20070;DHT22;10195;50.868;4.382;2023-07-31T07:00:08;18.40;99.90
20070;DHT22;10195;50.868;4.382;2023-07-31T07:02:33;18.50;99.90
20070;DHT22;10195;50.868;4.382;2023-07-31T07:04:59;18.60;99.90
20070;DHT22;10195;50.868;4.382;2023-07-31T07:07:26;18.70;99.90
20070;DHT22;10195;50.868;4.382;2023-07-31T07:09:51;18.70;99.90
20070;DHT22;10195;50.868;4.382;2023-07-31T07:12:17;18.70;99.90
20070;DHT22;10195;50.868;4.382;2023-07-31T07:14:43;18.80;99.90
20070;DHT22;10195;50.868;4.382;2023-07-31T07:17:09;18.90;99.90
20070;DHT22;10195;50.868;4.382;2023-07-31T07:19:34;19.10;99.90
20070;DHT22;10195;50.868;4.382;2023-07-31T07:22:00;19.20;99.90
20070;DHT22;10195;50.868;4.382;2023-07-31T07:24:27;19.40;99.90
20070;DHT22;10195;50.868;4.382;2023-07-31T07:26:53;19.40;99.90
20070;DHT22;10195;50.868;4.382;2023-07-31T07:29:18;19.30;99.90
20070;DHT22;10195;50.868;4.382;2023-07-31T07:31:44;18.90;99.90
20070;DHT22;10195;50.868;4.382;2023-07-31T07:34:10;18.80;99.90
20070;DHT22;10195;50.868;4.382;2023-07-31T07:36:35;18.70;99.90
20070;DHT22;10195;50.868;4.382;2023-07-31T07:39:01;18.60;99.90
20070;DHT22;10195;50.868;4.382;2023-07-31T07:41:26;18.70;99.90
20070;DHT22;10195;50.868;4.382;2023-07-31T07:43:52;18.70;99.90
20070;DHT22;10195;50.868;4.382;2023-07-31T07:46:18;18.80;99.90
20070;DHT22;10195;50.868;4.382;2023-07-31T07:48:43;18.90;99.90
20070;DHT22;10195;50.868;4.382;2023-07-31T07:51:09;18.90;99.90
20070;DHT22;10195;50.868;4.382;2023-07-31T07:53:34;18.80;99.90
20070;DHT22;10195;50.868;4.382;2023-07-31T07:56:00;18.80;99.90
20070;DHT22;10195;50.868;4.382;2023-07-31T07:58:26;18.90;99.90
20070;DHT22;10195;50.868;4.382;2023-07-31T08:00:52;18.90;99.90
20070;DHT22;10195;50.868;4.382;2023-07-31T08:03:17;18.80;99.90
20070;DHT22;10195;50.868;4.382;2023-07-31T08:05:44;18.90;99.90
20070;DHT22;10195;50.868;4.382;2023-07-31T08:08:14;18.90;99.90
20070;DHT22;10195;50.868;4.382;2023-07-31T08:10:40;19.00;99.90
20070;DHT22;10195;50.868;4.382;2023-07-31T08:13:06;19.00;99.90
20070;DHT22;10195;50.868;4.382;2023-07-31T08:15:31;18.90;99.90
20070;DHT22;10195;50.868;4.382;2023-07-31T08:17:57;19.00;99.90
20070;DHT22;10195;50.868;4.382;2023-07-31T08:20:22;19.00;99.90
20070;DHT22;10195;50.868;4.382;2023-07-31T08:22:48;19.00;99.90
20070;DHT22;10195;50.868;4.382;2023-07-31T08:25:14;18.90;99.90
20070;DHT22;10195;50.868;4.382;2023-07-31T08:27:43;18.90;99.90
20070;DHT22;10195;50.868;4.382;2023-07-31T08:30:09;18.80;99.90
20070;DHT22;10195;50.868;4.382;2023-07-31T08:32:35;18.90;99.90
20070;DHT22;10195;50.868;4.382;2023-07-31T08:35:01;18.90;99.90
20070;DHT22;10195;50.868;4.382;2023-07-31T08:37:26;18.80;99.90
20070;DHT22;10195;50.868;4.382;2023-07-31T08:39:52;18.80;99.90
20070;DHT22;10195;50.868;4.382;2023-07-31T08:42:19;18.90;99.90
20070;DHT22;10195;50.868;4.382;2023-07-31T08:44:44;18.90;99.90
20070;DHT22;10195;50.868;4.382;2023-07-31T08:47:11;18.90;99.90
20070;DHT22;10195;50.868;4.382;2023-07-31T08:49:38;18.80;99.90
20070;DHT22;10195;50.868;4.382;2023-07-31T08:52:06;18.80;99.90
20070;DHT22;10195;50.868;4.382;2023-07-31T08:54:31;18.80;99.90
20070;DHT22;10195;50.868;4.382;2023-07-31T08:56:59;18.80;99.90
20070;DHT22;10195;50.868;4.382;2023-07-31T08:59:29;18.80;99.90
20070;DHT22;10195;50.868;4.382;2023-07-31T09:01:57;18.60;99.90
20070;DHT22;10195;50.868;4.382;2023-07-31T09:04:26;18.70;99.90
20070;DHT22;10195;50.868;4.382;2023-07-31T09:06:59;18.70;99.90
20070;DHT22;10195;50.868;4.382;2023-07-31T09:09:25;18.80;99.90
20070;DHT22;10195;50.868;4.382;2023-07-31T09:11:51;18.80;99.90
20070;DHT22;10195;50.868;4.382;2023-07-31T09:14:17;18.90;99.90
20070;DHT22;10195;50.868;4.382;2023-07-31T09:16:58;19.10;99.90
20070;DHT22;10195;50.868;4.382;2023-07-31T09:19:26;19.00;99.90
20070;DHT22;10195;50.868;4.382;2023-07-31T09:21:52;19.10;99.90
20070;DHT22;10195;50.868;4.382;2023-07-31T09:24:29;19.50;99.90
20070;DHT22;10195;50.868;4.382;2023-07-31T09:26:56;19.60;99.90
20070;DHT22;10195;50.868;4.382;2023-07-31T09:29:23;19.80;99.90
20070;DHT22;10195;50.868;4.382;2023-07-31T09:31:48;20.00;99.90
20070;DHT22;10195;50.868;4.382;2023-07-31T09:34:14;20.10;99.90
20070;DHT22;10195;50.868;4.382;2023-07-31T09:36:41;20.40;99.90
20070;DHT22;10195;50.868;4.382;2023-07-31T09:39:10;20.40;99.90
20070;DHT22;10195;50.868;4.382;2023-07-31T09:41:37;20.20;99.90
20070;DHT22;10195;50.868;4.382;2023-07-31T09:44:04;20.00;99.90
20070;DHT22;10195;50.868;4.382;2023-07-31T09:46:30;19.80;99.90
20070;DHT22;10195;50.868;4.382;2023-07-31T09:49:13;19.70;99.90
20070;DHT22;10195;50.868;4.382;2023-07-31T09:51:41;19.90;99.90
20070;DHT22;10195;50.868;4.382;2023-07-31T09:54:16;19.90;99.90
20070;DHT22;10195;50.868;4.382;2023-07-31T09:56:47;19.80;99.90
20070;DHT22;10195;50.868;4.382;2023-07-31T09:59:18;19.80;99.90
20070;DHT22;10195;50.868;4.382;2023-07-31T10:01:46;19.70;99.90
20070;DHT22;10195;50.868;4.382;2023-07-31T10:04:13;19.70;99.90
20070;DHT22;10195;50.868;4.382;2023-07-31T10:06:40;19.80;99.90
20070;DHT22;10195;50.868;4.382;2023-07-31T10:09:11;19.60;99.90
20070;DHT22;10195;50.868;4.382;2023-07-31T10:11:44;19.60;99.90
20070;DHT22;10195;50.868;4.382;2023-07-31T10:14:11;19.60;99.90
20070;DHT22;10195;50.868;4.382;2023-07-31T10:16:38;19.50;99.90
20070;DHT22;10195;50.868;4.382;2023-07-31T10:19:05;19.40;99.90
20070;DHT22;10195;50.868;4.382;2023-07-31T10:21:31;19.30;99.90
20070;DHT22;10195;50.868;4.382;2023-07-31T10:24:05;19.50;99.90
20070;DHT22;10195;50.868;4.382;2023-07-31T10:26:32;19.80;99.90
20070;DHT22;10195;50.868;4.382;2023-07-31T10:29:00;19.90;99.90
20070;DHT22;10195;50.868;4.382;2023-07-31T10:31:28;20.00;99.90
20070;DHT22;10195;50.868;4.382;2023-07-31T10:33:55;20.00;99.90
20070;DHT22;10195;50.868;4.382;2023-07-31T10:36:21;20.10;99.90
20070;DHT22;10195;50.868;4.382;2023-07-31T10:38:50;20.20;99.90
20070;DHT22;10195;50.868;4.382;2023-07-31T10:41:18;20.10;99.90
20070;DHT22;10195;50.868;4.382;2023-07-31T10:43:46;20.10;99.90
20070;DHT22;10195;50.868;4.382;2023-07-31T10:46:13;19.80;99.90
20070;DHT22;10195;50.868;4.382;2023-07-31T10:48:40;19.80;99.90
20070;DHT22;10195;50.868;4.382;2023-07-31T10:51:10;20.00;99.90
20070;DHT22;10195;50.868;4.382;2023-07-31T10:53:38;20.20;99.90
20070;DHT22;10195;50.868;4.382;2023-07-31T10:56:10;20.20;99.90
20070;DHT22;10195;50.868;4.382;2023-07-31T10:58:39;20.30;99.90
20070;DHT22;10195;50.868;4.382;2023-07-31T11:01:06;20.40;99.90
20070;DHT22;10195;50.868;4.382;2023-07-31T11:06:08;20.50;99.90
20070;DHT22;10195;50.868;4.382;2023-07-31T11:08:35;20.50;99.90
20070;DHT22;10195;50.868;4.382;2023-07-31T11:11:08;20.60;99.90
20070;DHT22;10195;50.868;4.382;2023-07-31T11:13:49;20.70;99.90
20070;DHT22;10195;50.868;4.382;2023-07-31T11:16:16;20.70;99.90
20070;DHT22;10195;50.868;4.382;2023-07-31T11:18:43;20.90;99.90
20070;DHT22;10195;50.868;4.382;2023-07-31T11:21:14;20.90;99.90
20070;DHT22;10195;50.868;4.382;2023-07-31T11:23:40;21.10;99.90
20070;DHT22;10195;50.868;4.382;2023-07-31T11:26:06;21.20;99.90
20070;DHT22;10195;50.868;4.382;2023-07-31T11:28:34;21.10;99.90
20070;DHT22;10195;50.868;4.382;2023-07-31T11:31:00;20.90;99.90
20070;DHT22;10195;50.868;4.382;2023-07-31T11:33:27;20.80;99.90
20070;DHT22;10195;50.868;4.382;2023-07-31T11:35:52;20.70;99.90
20070;DHT22;10195;50.868;4.382;2023-07-31T11:38:30;20.70;99.90
20070;DHT22;10195;50.868;4.382;2023-07-31T11:40:58;20.80;99.90
20070;DHT22;10195;50.868;4.382;2023-07-31T11:43:24;20.70;99.90
20070;DHT22;10195;50.868;4.382;2023-07-31T11:45:52;20.80;99.90
20070;DHT22;10195;50.868;4.382;2023-07-31T11:48:22;20.70;99.90
20070;DHT22;10195;50.868;4.382;2023-07-31T11:50:53;20.60;99.90
20070;DHT22;10195;50.868;4.382;2023-07-31T11:55:51;20.70;99.90
20070;DHT22;10195;50.868;4.382;2023-07-31T11:58:17;20.80;99.90
20070;DHT22;10195;50.868;4.382;2023-07-31T12:00:45;20.80;99.90
20070;DHT22;10195;50.868;4.382;2023-07-31T12:03:11;20.90;99.90
20070;DHT22;10195;50.868;4.382;2023-07-31T12:05:37;20.90;99.90
20070;DHT22;10195;50.868;4.382;2023-07-31T12:08:09;20.70;99.90
20070;DHT22;10195;50.868;4.382;2023-07-31T12:10:37;21.00;99.90
20070;DHT22;10195;50.868;4.382;2023-07-31T12:13:08;21.20;99.90
20070;DHT22;10195;50.868;4.382;2023-07-31T12:15:43;21.30;99.90
20070;DHT22;10195;50.868;4.382;2023-07-31T12:18:14;21.30;99.90
20070;DHT22;10195;50.868;4.382;2023-07-31T12:20:45;21.40;99.90
20070;DHT22;10195;50.868;4.382;2023-07-31T12:23:21;21.30;99.90
20070;DHT22;10195;50.868;4.382;2023-07-31T12:26:13;21.10;99.90
20070;DHT22;10195;50.868;4.382;2023-07-31T12:28:44;21.10;99.90
20070;DHT22;10195;50.868;4.382;2023-07-31T12:31:11;21.20;99.90
20070;DHT22;10195;50.868;4.382;2023-07-31T12:33:38;21.40;99.90
20070;DHT22;10195;50.868;4.382;2023-07-31T12:36:12;21.40;99.90
20070;DHT22;10195;50.868;4.382;2023-07-31T12:38:38;21.40;99.90
20070;DHT22;10195;50.868;4.382;2023-07-31T12:41:03;21.30;99.90
20070;DHT22;10195;50.868;4.382;2023-07-31T12:43:29;21.30;99.90
20070;DHT22;10195;50.868;4.382;2023-07-31T12:45:55;21.40;99.90
20070;DHT22;10195;50.868;4.382;2023-07-31T12:48:22;21.50;99.90
20070;DHT22;10195;50.868;4.382;2023-07-31T12:50:47;21.70;99.90
20070;DHT22;10195;50.868;4.382;2023-07-31T12:53:14;21.50;99.90
20070;DHT22;10195;50.868;4.382;2023-07-31T12:55:40;21.60;99.90
20070;DHT22;10195;50.868;4.382;2023-07-31T12:58:06;21.70;99.90
20070;DHT22;10195;50.868;4.382;2023-07-31T13:00:31;21.60;99.90
20070;DHT22;10195;50.868;4.382;2023-07-31T13:02:57;21.60;99.90
20070;DHT22;10195;50.868;4.382;2023-07-31T13:05:23;21.40;99.90
20070;DHT22;10195;50.868;4.382;2023-07-31T13:07:48;21.20;99.90
20070;DHT22;10195;50.868;4.382;2023-07-31T13:10:14;21.10;99.90
20070;DHT22;10195;50.868;4.382;2023-07-31T13:12:40;20.90;99.90
20070;DHT22;10195;50.868;4.382;2023-07-31T13:15:06;20.90;99.90
20070;DHT22;10195;50.868;4.382;2023-07-31T13:17:33;21.00;99.90
20070;DHT22;10195;50.868;4.382;2023-07-31T13:19:59;20.90;99.90
20070;DHT22;10195;50.868;4.382;2023-07-31T13:22:25;20.80;99.90
20070;DHT22;10195;50.868;4.382;2023-07-31T13:24:50;20.70;99.90
20070;DHT22;10195;50.868;4.382;2023-07-31T13:27:16;20.60;99.90
20070;DHT22;10195;50.868;4.382;2023-07-31T13:29:50;20.40;99.90
20070;DHT22;10195;50.868;4.382;2023-07-31T13:32:20;20.30;99.90
20070;DHT22;10195;50.868;4.382;2023-07-31T13:34:46;20.00;99.90
20070;DHT22;10195;50.868;4.382;2023-07-31T13:37:12;19.90;99.90
20070;DHT22;10195;50.868;4.382;2023-07-31T13:39:38;19.70;99.90
20070;DHT22;10195;50.868;4.382;2023-07-31T13:42:05;19.50;99.90
20070;DHT22;10195;50.868;4.382;2023-07-31T13:44:36;19.30;99.90
20070;DHT22;10195;50.868;4.382;2023-07-31T13:47:02;19.30;99.90
20070;DHT22;10195;50.868;4.382;2023-07-31T13:49:28;19.40;99.90
20070;DHT22;10195;50.868;4.382;2023-07-31T13:51:54;19.40;99.90
20070;DHT22;10195;50.868;4.382;2023-07-31T13:54:20;19.40;99.90
20070;DHT22;10195;50.868;4.382;2023-07-31T13:56:46;19.40;99.90
20070;DHT22;10195;50.868;4.382;2023-07-31T13:59:11;19.40;99.90
20070;DHT22;10195;50.868;4.382;2023-07-31T14:01:37;19.50;99.90
20070;DHT22;10195;50.868;4.382;2023-07-31T14:04:03;19.30;99.90
20070;DHT22;10195;50.868;4.382;2023-07-31T14:06:29;19.20;99.90
20070;DHT22;10195;50.868;4.382;2023-07-31T14:08:54;19.30;99.90
20070;DHT22;10195;50.868;4.382;2023-07-31T14:11:22;19.30;99.90
20070;DHT22;10195;50.868;4.382;2023-07-31T14:13:47;19.30;99.90
20070;DHT22;10195;50.868;4.382;2023-07-31T14:16:13;19.30;99.90
20070;DHT22;10195;50.868;4.382;2023-07-31T14:18:39;19.30;99.90
20070;DHT22;10195;50.868;4.382;2023-07-31T14:21:05;19.40;99.90
20070;DHT22;10195;50.868;4.382;2023-07-31T14:23:30;19.30;99.90
20070;DHT22;10195;50.868;4.382;2023-07-31T14:25:56;19.40;99.90
20070;DHT22;10195;50.868;4.382;2023-07-31T14:28:21;19.30;99.90
20070;DHT22;10195;50.868;4.382;2023-07-31T14:30:47;19.30;99.90
20070;DHT22;10195;50.868;4.382;2023-07-31T14:33:13;19.40;99.90
20070;DHT22;10195;50.868;4.382;2023-07-31T14:35:39;19.40;99.90
20070;DHT22;10195;50.868;4.382;2023-07-31T14:38:04;19.30;99.90
20070;DHT22;10195;50.868;4.382;2023-07-31T14:40:30;19.30;99.90
20070;DHT22;10195;50.868;4.382;2023-07-31T14:42:55;19.30;99.90
20070;DHT22;10195;50.868;4.382;2023-07-31T14:45:21;19.40;99.90
20070;DHT22;10195;50.868;4.382;2023-07-31T14:47:47;19.30;99.90
20070;DHT22;10195;50.868;4.382;2023-07-31T14:50:12;19.20;99.90
20070;DHT22;10195;50.868;4.382;2023-07-31T14:52:38;19.10;99.90
20070;DHT22;10195;50.868;4.382;2023-07-31T14:55:04;19.20;99.90
20070;DHT22;10195;50.868;4.382;2023-07-31T14:57:30;19.30;99.90
20070;DHT22;10195;50.868;4.382;2023-07-31T14:59:56;19.20;99.90
20070;DHT22;10195;50.868;4.382;2023-07-31T15:02:21;19.10;99.90
20070;DHT22;10195;50.868;4.382;2023-07-31T15:04:47;19.00;99.90
20070;DHT22;10195;50.868;4.382;2023-07-31T15:07:12;19.00;99.90
20070;DHT22;10195;50.868;4.382;2023-07-31T15:09:39;18.90;99.90
20070;DHT22;10195;50.868;4.382;2023-07-31T15:12:05;19.00;99.90
20070;DHT22;10195;50.868;4.382;2023-07-31T15:14:31;18.90;99.90
20070;DHT22;10195;50.868;4.382;2023-07-31T15:16:57;19.00;99.90
20070;DHT22;10195;50.868;4.382;2023-07-31T15:19:22;19.00;99.90
20070;DHT22;10195;50.868;4.382;2023-07-31T15:21:49;19.00;99.90
20070;DHT22;10195;50.868;4.382;2023-07-31T15:24:15;19.00;99.90
20070;DHT22;10195;50.868;4.382;2023-07-31T15:26:40;18.90;99.90
20070;DHT22;10195;50.868;4.382;2023-07-31T15:29:07;18.90;99.90
20070;DHT22;10195;50.868;4.382;2023-07-31T15:31:45;19.00;99.90
20070;DHT22;10195;50.868;4.382;2023-07-31T15:34:11;19.10;99.90
20070;DHT22;10195;50.868;4.382;2023-07-31T15:36:37;19.10;99.90
20070;DHT22;10195;50.868;4.382;2023-07-31T15:39:03;19.00;99.90